»·PEaware :: SAS457 KSLC-KCOS

SAS457 :: KSLC-KCOS

FLIGHT INFORMATION

Flight Status: Arrived
Operator:
SAS
More flights by this operator :: More flights under this callsign
Pilot: Alan S. (10569)
Aircraft: AIRBUS A320
(A320)
More flights by this aircraft type
Origin: KSLC Salt Lake City Intl
United States
Destination: KCOS City Of Colorado Springs Mun
United States
More flights between these airports :: More routes between these airports
Route: +NSIGN4 MTU J240 HBU BRK DCT
File this flight plan on PilotEdge
Remarks: Scandinavian twitch.tv / aerosimgaming
Altitude:
(Current/Filed)
31,000ft
Speed:
(Current/Filed)
460kts
Departed: 15-Jan-17 08:45 PM
Arrived: 15-Jan-17 10:20 PM
Distance/Time
Traveled:
355nm/1:35
Distance/Time
To Go:
Arrived

Flight Plot

Page will automatically refresh every two minutes.

Flight plan parsing failed; only flown route is shown


Map Options




Map Legend


Flown Route
Filed Route
Departure Airport
Arrival Airport
Navaid (VOR, NDB)
Fix

Horizontal Profiles

Position Reports

Time Latitude Longitude Heading Altitude Ground
Speed
15-Jan-17 20:10 40.789031 -111.983775 252 4204ft 0kts
15-Jan-17 20:11 40.789031 -111.983775 252 4204ft 0kts
15-Jan-17 20:12 40.789031 -111.983775 252 4204ft 0kts
15-Jan-17 20:13 40.789031 -111.983775 252 4204ft 0kts
15-Jan-17 20:14 40.789031 -111.983775 252 4204ft 0kts
15-Jan-17 20:15 40.789031 -111.983775 252 4204ft 0kts
15-Jan-17 20:16 40.789031 -111.983775 252 4204ft 0kts
15-Jan-17 20:17 40.789031 -111.983775 252 4204ft 0kts
15-Jan-17 20:18 40.789031 -111.983775 252 4204ft 0kts
15-Jan-17 20:19 40.789031 -111.983775 252 4204ft 0kts
15-Jan-17 20:20 40.789031 -111.983775 252 4204ft 0kts
15-Jan-17 20:21 40.789031 -111.983775 252 4204ft 0kts
15-Jan-17 20:22 40.789031 -111.983775 252 4204ft 0kts
15-Jan-17 20:23 40.789031 -111.983775 252 4204ft 0kts
15-Jan-17 20:24 40.789031 -111.983775 252 4204ft 0kts
15-Jan-17 20:25 40.789031 -111.983775 252 4204ft 0kts
15-Jan-17 20:26 40.789031 -111.983775 252 4204ft 0kts
15-Jan-17 20:27 40.789031 -111.983775 252 4204ft 0kts
15-Jan-17 20:28 40.789108 -111.983448 252 4204ft 0kts
15-Jan-17 20:29 40.788890 -111.982852 354 4204ft 0kts
15-Jan-17 20:30 40.788890 -111.982852 354 4204ft 0kts
15-Jan-17 20:31 40.788890 -111.982852 354 4204ft 0kts
15-Jan-17 20:32 40.788890 -111.982852 354 4204ft 0kts
15-Jan-17 20:33 40.788890 -111.982852 354 4204ft 0kts
15-Jan-17 20:34 40.789879 -111.982136 82 4204ft 10kts
15-Jan-17 20:35 40.789851 -111.977060 174 4204ft 15kts
15-Jan-17 20:36 40.785489 -111.976560 174 4204ft 15kts
15-Jan-17 20:37 40.781899 -111.976163 175 4204ft 10kts
15-Jan-17 20:38 40.779653 -111.975906 175 4204ft 5kts
15-Jan-17 20:39 40.777736 -111.975641 174 4204ft 10kts
15-Jan-17 20:40 40.774540 -111.974680 112 4204ft 0kts
15-Jan-17 20:41 40.774540 -111.974680 112 4204ft 0kts
15-Jan-17 20:42 40.774540 -111.974680 112 4204ft 0kts
15-Jan-17 20:43 40.774540 -111.974680 112 4204ft 0kts
15-Jan-17 20:44 40.775084 -111.973285 16 4204ft 12kts
15-Jan-17 20:45 40.799755 -111.975953 354 4324ft 173kts
15-Jan-17 20:46 40.851198 -111.982332 352 5750ft 208kts
15-Jan-17 20:47 40.916463 -111.991714 353 7460ft 244kts
15-Jan-17 20:48 40.985967 -111.997379 10 9598ft 259kts
15-Jan-17 20:49 40.995225 -111.916654 128 10702ft 311kts
15-Jan-17 20:50 40.933783 -111.826195 133 12363ft 347kts
15-Jan-17 20:51 40.867972 -111.725542 122 13751ft 387kts
15-Jan-17 20:52 40.809008 -111.599582 117 14982ft 426kts
15-Jan-17 20:53 40.750482 -111.466797 116 16958ft 436kts
15-Jan-17 20:54 40.690339 -111.330128 115 18664ft 443kts
15-Jan-17 20:55 40.628012 -111.188007 115 19991ft 453kts
15-Jan-17 20:56 40.563921 -111.043704 115 21184ft 462kts
15-Jan-17 20:57 40.498607 -110.897376 114 22398ft 470kts
15-Jan-17 20:58 40.431786 -110.748391 114 23642ft 478kts
15-Jan-17 20:59 40.363722 -110.597361 113 24866ft 487kts
15-Jan-17 21:00 40.293801 -110.442988 113 25979ft 499kts
15-Jan-17 21:01 40.200870 -110.237908 113 27793ft 499kts
15-Jan-17 21:02 40.153746 -110.134872 113 28635ft 498kts
15-Jan-17 21:03 40.047763 -109.936503 116 30087ft 500kts
15-Jan-17 21:04 39.995249 -109.836857 116 30719ft 500kts
15-Jan-17 21:05 39.916917 -109.688782 116 31105ft 499kts
15-Jan-17 21:06 39.841122 -109.546424 116 31102ft 499kts
15-Jan-17 21:07 39.762303 -109.398818 116 31102ft 498kts
15-Jan-17 21:08 39.685601 -109.254815 117 31103ft 499kts
15-Jan-17 21:09 39.606538 -109.107968 117 31103ft 499kts
15-Jan-17 21:10 39.526873 -108.960795 117 31103ft 499kts
15-Jan-17 21:11 39.447214 -108.814315 117 31108ft 499kts
15-Jan-17 21:12 39.367468 -108.668342 117 31002ft 500kts
15-Jan-17 21:13 39.287131 -108.521966 117 31003ft 500kts
15-Jan-17 21:14 39.206845 -108.376345 117 31005ft 500kts
15-Jan-17 21:15 39.130479 -108.237471 118 31006ft 501kts
15-Jan-17 21:16 39.049975 -108.092645 118 31034ft 501kts
15-Jan-17 21:17 38.968895 -107.947533 118 31017ft 501kts
15-Jan-17 21:18 38.889816 -107.806659 118 31003ft 502kts
15-Jan-17 21:19 38.808355 -107.662380 118 30992ft 502kts
15-Jan-17 21:20 38.726747 -107.518266 118 30994ft 501kts
15-Jan-17 21:21 38.644959 -107.374474 118 30996ft 501kts
15-Jan-17 21:22 38.569335 -107.241141 118 30997ft 502kts
15-Jan-17 21:23 38.487371 -107.097279 114 30996ft 497kts
15-Jan-17 21:24 38.475708 -106.939403 68 30891ft 449kts
15-Jan-17 21:25 38.507393 -106.779415 65 29968ft 470kts
15-Jan-17 21:26 38.541001 -106.619225 66 29002ft 469kts
15-Jan-17 21:27 38.574096 -106.460508 66 28063ft 460kts
15-Jan-17 21:28 38.604102 -106.316178 66 27179ft 453kts
15-Jan-17 21:29 38.636023 -106.162325 67 26178ft 445kts
15-Jan-17 21:30 38.608794 -106.015951 118 24250ft 454kts
15-Jan-17 21:31 38.547059 -105.883675 118 22328ft 436kts
15-Jan-17 21:32 38.486944 -105.753160 118 20407ft 418kts
15-Jan-17 21:33 38.430301 -105.628009 117 18632ft 400kts
15-Jan-17 21:34 38.389112 -105.499082 108 16637ft 387kts
15-Jan-17 21:35 38.353476 -105.374934 107 15590ft 349kts
15-Jan-17 21:36 38.322797 -105.266022 108 14900ft 311kts
15-Jan-17 21:37 38.294552 -105.162354 108 14901ft 327kts
15-Jan-17 21:38 38.263693 -105.053919 108 14904ft 327kts
15-Jan-17 21:39 38.232825 -104.945299 108 14904ft 327kts
15-Jan-17 21:40 38.202456 -104.836993 107 14905ft 327kts
15-Jan-17 21:41 38.171882 -104.728520 107 14932ft 326kts
15-Jan-17 21:42 38.147186 -104.622826 77 14941ft 306kts
15-Jan-17 21:43 38.204813 -104.562004 17 14931ft 276kts
15-Jan-17 21:44 38.270859 -104.513321 58 14947ft 293kts
15-Jan-17 21:45 38.288780 -104.420003 50 14917ft 257kts
15-Jan-17 21:46 38.340419 -104.415871 308 14444ft 216kts
15-Jan-17 21:47 38.381117 -104.470218 312 13093ft 206kts
15-Jan-17 21:48 38.420903 -104.521741 316 11937ft 221kts
15-Jan-17 21:49 38.466459 -104.580591 316 10645ft 239kts
15-Jan-17 21:50 38.511071 -104.638574 314 10104ft 223kts
15-Jan-17 21:51 38.555052 -104.695085 315 9378ft 231kts
15-Jan-17 21:52 38.603465 -104.719070 9 8237ft 202kts
15-Jan-17 21:53 38.650044 -104.716074 1 7160ft 146kts
15-Jan-17 21:54 38.696197 -104.717069 0 7082ft 177kts
15-Jan-17 21:55 38.741772 -104.716021 1 6729ft 161kts
15-Jan-17 21:56 38.785569 -104.715870 1 6380ft 179kts
15-Jan-17 21:57 38.846900 -104.698331 36 7595ft 275kts
15-Jan-17 21:58 38.886814 -104.617036 64 9036ft 279kts
15-Jan-17 21:59 38.937379 -104.535689 44 9097ft 317kts
15-Jan-17 22:00 38.998011 -104.456451 42 9904ft 319kts
15-Jan-17 22:01 39.013634 -104.351776 123 9943ft 352kts
15-Jan-17 22:02 38.958884 -104.253181 138 9899ft 320kts
15-Jan-17 22:03 38.872794 -104.262808 197 9900ft 268kts
15-Jan-17 22:04 38.813476 -104.284589 197 9902ft 266kts
15-Jan-17 22:05 38.741883 -104.310798 197 9903ft 269kts
15-Jan-17 22:06 38.670481 -104.336964 197 9904ft 267kts
15-Jan-17 22:07 38.596682 -104.364040 196 9903ft 280kts
15-Jan-17 22:08 38.525324 -104.393081 199 9923ft 252kts
15-Jan-17 22:09 38.466237 -104.419289 210 9906ft 196kts
15-Jan-17 22:10 38.440445 -104.471294 249 10047ft 163kts
15-Jan-17 22:11 38.429616 -104.538759 304 9479ft 173kts
15-Jan-17 22:12 38.468653 -104.589761 320 8277ft 219kts
15-Jan-17 22:13 38.513357 -104.640374 320 8190ft 200kts
15-Jan-17 22:14 38.554787 -104.683524 321 7956ft 205kts
15-Jan-17 22:15 38.603063 -104.710538 352 8101ft 183kts
15-Jan-17 22:16 38.653120 -104.718624 358 7973ft 176kts
15-Jan-17 22:17 38.701575 -104.716754 0 7904ft 172kts
15-Jan-17 22:18 38.748820 -104.715878 359 7009ft 160kts
15-Jan-17 22:19 38.792767 -104.715893 359 6160ft 155kts
15-Jan-17 22:20 38.812327 -104.716165 310 6100ft 11kts
15-Jan-17 22:21 38.812475 -104.719156 274 6100ft 10kts
15-Jan-17 22:22 38.812833 -104.721834 270 6100ft 1kts

Navigation Log

Ident Type
Flight plan parsing failed, navigation log unavailable